This is the latest recevied weather packets stored in our database for station/object FACT. If no packets are shown the sender has not sent any weather packets the latest 10 day(s).
| Time | Temp. | Humidity | Pressure | Rain* | Wind** | Luminosity | Snow |
|---|---|---|---|---|---|---|---|
| 1777577609 | 15° C | 62% | 1016 hPa | - | - | - | - |
| 1777575805 | 15° C | 67% | 1016 hPa | - | - | - | - |
| 1777574601 | 15° C | 67% | 1016 hPa | - | - | - | - |
| 1777571007 | 15.56° C | 67% | 1015 hPa | - | - | - | - |
| 1777568004 | 15.56° C | 67% | 1014 hPa | - | - | - | - |
| 1777566811 | 15.56° C | 67% | 1014 hPa | - | - | - | - |
| 1777565607 | 15.56° C | 67% | 1014 hPa | - | - | - | - |
| 1777562609 | 17.78° C | 59% | 1014 hPa | - | - | - | - |
| 1777562006 | 17.78° C | 59% | 1014 hPa | - | - | - | - |
| 1777560203 | 17.78° C | 63% | 1014 hPa | - | - | - | - |
| 1777557209 | 18.89° C | 55% | 1014 hPa | - | - | - | - |
| 1777556007 | 18.89° C | 55% | 1014 hPa | - | - | - | - |
| 1777554203 | 18.89° C | 52% | 1014 hPa | - | - | - | - |
| 1777553007 | 18.89° C | 52% | 1014 hPa | - | - | - | - |
| 1777549409 | 18.89° C | 59% | 1014 hPa | - | - | - | - |
| 1777544610 | 17.78° C | 63% | 1015 hPa | - | - | - | - |
| 1777544007 | 17.78° C | 63% | 1015 hPa | - | - | - | - |
| 1777543527 | 17.78° C | 63% | 1015 hPa | - | - | - | - |
| 1777541610 | 17.78° C | 63% | 1015 hPa | - | - | - | - |
| 1777541003 | 17.78° C | 63% | 1015 hPa | - | - | - | - |
| 1777536205 | 15.56° C | 77% | 1015 hPa | - | - | - | - |
| 1777534403 | 15.56° C | 77% | 1015 hPa | - | - | - | - |
| 1777533805 | 15.56° C | 77% | 1015 hPa | - | - | - | - |
| 1777532606 | 13.89° C | 82% | 1014 hPa | - | - | - | - |
| 1777530807 | 13.89° C | 82% | 1014 hPa | - | - | - | - |
* Rain since midnight (hover to see other rain measurements)
** Current wind speed in m/s (hover to see current wind gust speed)